Paramount Helsinki — 2CWB3 — position and weather

sailwx.info

Track history (hours):
 
Tides and Currents Weather Stations Pressure Air Temp Water Temp Dewpoint Dewpoint Depression Visibility Wind Speed Wind Dir Waves Ship Positions

Paramount Helsinki

Last reported at 2017-Feb-19 03:34 UTC. Time now 2017-Feb-22 19:59 UTC.
Position N 13°20' W 018°30'.

Length 250 m; draft 8.5 m.

Type: Tanker. MMSI: 235076275.

Date/timePositionNaut miles runAvg speedWind from/ knotsBaromVisibWave heightAir tempDewpointWater temp
2017-Feb-19 03:34N 13°20' W 018°30'1413.8
2017-Feb-19 02:33N 13°34' W 018°30'1413.7
2017-Feb-19 01:32N 13°48' W 018°30'1413.8
2017-Feb-19 00:33N 14°02' W 018°30'3514.3
2017-Feb-18 22:05N 14°37' W 018°30'  
2017-Feb-16 14:30N 27°32' W 015°18'1415.3
2017-Feb-16 13:33N 27°45' W 015°10'1515.3
2017-Feb-16 12:33N 27°60' W 015°04'1515.4
2017-Feb-16 11:33N 28°14' W 014°58'1515.1
2017-Feb-16 10:34N 28°28' W 014°52'1514.8
2017-Feb-16 09:34N 28°39' W 014°40'1514.8
2017-Feb-16 08:34N 28°50' W 014°29'1515.1
2017-Feb-16 07:34N 29°01' W 014°17'1515.3
2017-Feb-16 06:33N 29°13' W 014°06'1515.3
2017-Feb-16 05:34N 29°24' W 013°54'1515.1
2017-Feb-16 04:33N 29°35' W 013°42'1515.0
2017-Feb-16 03:33N 29°46' W 013°31'52614.9
2017-Feb-14 16:20N 35°52' W 006°00'1414.2
2017-Feb-14 15:22N 35°57' W 005°45'1114.1
2017-Feb-14 14:33N 35°59' W 005°31'7 7.1
2017-Feb-14 13:33N 36°03' W 005°24'1 0.9
2017-Feb-14 12:33N 36°04' W 005°24'3 3.1
2017-Feb-14 11:33N 36°07' W 005°23'0 0.4
2017-Feb-14 10:32N 36°08' W 005°23'0 0.0
2017-Feb-14 09:32N 36°08' W 005°23'0 0.0
2017-Feb-14 08:32N 36°08' W 005°23'0 0.1
2017-Feb-14 07:32N 36°08' W 005°23'0 0.1
2017-Feb-14 06:32N 36°08' W 005°23'0 0.1
2017-Feb-14 05:32N 36°08' W 005°23'0 0.0
2017-Feb-14 04:32N 36°08' W 005°23'0 0.0
2017-Feb-14 03:32N 36°08' W 005°23'0 0.1
2017-Feb-14 02:32N 36°08' W 005°23'0 0.2
2017-Feb-14 01:32N 36°08' W 005°23'0 0.0
2017-Feb-14 00:32N 36°08' W 005°23'0 0.0
2017-Feb-13 23:32N 36°08' W 005°23'0 0.0
2017-Feb-13 22:32N 36°08' W 005°23'0 0.1
2017-Feb-13 21:32N 36°08' W 005°23'0 0.1
2017-Feb-13 20:33N 36°08' W 005°23'3 2.8
2017-Feb-13 19:33N 36°05' W 005°21'6 5.9
2017-Feb-13 18:33N 36°06' W 005°14'6 6.3
2017-Feb-13 17:33N 36°06' W 005°06'3 3.1
2017-Feb-13 16:33N 36°04' W 005°03'2 2.3
2017-Feb-13 15:33N 36°04' W 005°06'2 2.4
2017-Feb-13 14:33N 36°02' W 005°07'1 1.1
2017-Feb-13 13:33N 36°03' W 005°06'1 1.4
2017-Feb-13 12:32N 36°04' W 005°07'2 2.5
2017-Feb-13 11:33N 36°06' W 005°08'3 3.5
2017-Feb-13 10:33N 36°09' W 005°10'4 4.0
2017-Feb-13 09:26N 36°07' W 005°05'1 1.3
2017-Feb-13 08:33N 36°06' W 005°04'2 2.4
2017-Feb-13 07:33N 36°08' W 005°07'3 2.7
2017-Feb-13 06:33N 36°08' W 005°10'3 3.1
2017-Feb-13 05:33N 36°11' W 005°09'2 2.0
2017-Feb-13 04:33N 36°10' W 005°10'2 2.0
2017-Feb-13 03:32N 36°09' W 005°08'1 1.5
2017-Feb-13 02:33N 36°09' W 005°10'2 1.9
2017-Feb-13 01:33N 36°08' W 005°12'1 0.7
2017-Feb-13 00:33N 36°08' W 005°13'1 0.8
2017-Feb-12 23:33N 36°07' W 005°12'1 0.9
2017-Feb-12 22:33N 36°07' W 005°11'1 0.9
2017-Feb-12 21:33N 36°07' W 005°10'1 0.9
2017-Feb-12 20:33N 36°06' W 005°09'2 1.9
2017-Feb-12 19:33N 36°04' W 005°09'5 4.9
2017-Feb-12 18:33N 36°01' W 005°13'1010.0
2017-Feb-12 17:33N 35°58' W 005°25'1413.7
2017-Feb-12 16:33N 35°55' W 005°42'1514.8
2017-Feb-12 15:33N 35°54' W 006°00'23312.2
2017-Feb-11 20:28N 38°10' W 009°58'1213.2
2017-Feb-11 19:33N 38°21' W 010°01'1313.4
2017-Feb-11 18:33N 38°34' W 010°05'1414.0
2017-Feb-11 17:33N 38°48' W 010°07'1414.3
2017-Feb-11 16:33N 39°03' W 010°06'1714.1
2017-Feb-11 15:22N 39°19' W 010°04'  
2017-Feb-09 06:33N 50°41' W 005°57'1414.1
2017-Feb-09 05:33N 50°54' W 005°47'1413.6
2017-Feb-09 04:30N 51°07' W 005°37'  
Track history (hours):
 
Tides and Currents Weather Stations Pressure Air Temp Water Temp Dewpoint Dewpoint Depression Visibility Wind Speed Wind Dir Waves Ship Positions

Paramount Helsinki

Last reported at 2017-Feb-19 03:34 UTC. Time now 2017-Feb-22 19:59 UTC.
Position N 13°20' W 018°30'.

Length 250 m; draft 8.5 m.

Type: Tanker. MMSI: 235076275.

Date/timePositionNaut miles runAvg speedWind from/ knotsBaromVisibWave heightAir tempDewpointWater temp
2017-Feb-19 03:34N 13°20' W 018°30'1413.8
2017-Feb-19 02:33N 13°34' W 018°30'1413.7
2017-Feb-19 01:32N 13°48' W 018°30'1413.8
2017-Feb-19 00:33N 14°02' W 018°30'3514.3
2017-Feb-18 22:05N 14°37' W 018°30'  
2017-Feb-16 14:30N 27°32' W 015°18'1415.3
2017-Feb-16 13:33N 27°45' W 015°10'1515.3
2017-Feb-16 12:33N 27°60' W 015°04'1515.4
2017-Feb-16 11:33N 28°14' W 014°58'1515.1
2017-Feb-16 10:34N 28°28' W 014°52'1514.8
2017-Feb-16 09:34N 28°39' W 014°40'1514.8
2017-Feb-16 08:34N 28°50' W 014°29'1515.1
2017-Feb-16 07:34N 29°01' W 014°17'1515.3
2017-Feb-16 06:33N 29°13' W 014°06'1515.3
2017-Feb-16 05:34N 29°24' W 013°54'1515.1
2017-Feb-16 04:33N 29°35' W 013°42'1515.0
2017-Feb-16 03:33N 29°46' W 013°31'52614.9
2017-Feb-14 16:20N 35°52' W 006°00'1414.2
2017-Feb-14 15:22N 35°57' W 005°45'1114.1
2017-Feb-14 14:33N 35°59' W 005°31'7 7.1
2017-Feb-14 13:33N 36°03' W 005°24'1 0.9
2017-Feb-14 12:33N 36°04' W 005°24'3 3.1
2017-Feb-14 11:33N 36°07' W 005°23'0 0.4
2017-Feb-14 10:32N 36°08' W 005°23'0 0.0
2017-Feb-14 09:32N 36°08' W 005°23'0 0.0
2017-Feb-14 08:32N 36°08' W 005°23'0 0.1
2017-Feb-14 07:32N 36°08' W 005°23'0 0.1
2017-Feb-14 06:32N 36°08' W 005°23'0 0.1
2017-Feb-14 05:32N 36°08' W 005°23'0 0.0
2017-Feb-14 04:32N 36°08' W 005°23'0 0.0
2017-Feb-14 03:32N 36°08' W 005°23'0 0.1
2017-Feb-14 02:32N 36°08' W 005°23'0 0.2
2017-Feb-14 01:32N 36°08' W 005°23'0 0.0
2017-Feb-14 00:32N 36°08' W 005°23'0 0.0
2017-Feb-13 23:32N 36°08' W 005°23'0 0.0
2017-Feb-13 22:32N 36°08' W 005°23'0 0.1
2017-Feb-13 21:32N 36°08' W 005°23'0 0.1
2017-Feb-13 20:33N 36°08' W 005°23'3 2.8
2017-Feb-13 19:33N 36°05' W 005°21'6 5.9
2017-Feb-13 18:33N 36°06' W 005°14'6 6.3
2017-Feb-13 17:33N 36°06' W 005°06'3 3.1
2017-Feb-13 16:33N 36°04' W 005°03'2 2.3
2017-Feb-13 15:33N 36°04' W 005°06'2 2.4
2017-Feb-13 14:33N 36°02' W 005°07'1 1.1
2017-Feb-13 13:33N 36°03' W 005°06'1 1.4
2017-Feb-13 12:32N 36°04' W 005°07'2 2.5
2017-Feb-13 11:33N 36°06' W 005°08'3 3.5
2017-Feb-13 10:33N 36°09' W 005°10'4 4.0
2017-Feb-13 09:26N 36°07' W 005°05'1 1.3
2017-Feb-13 08:33N 36°06' W 005°04'2 2.4
2017-Feb-13 07:33N 36°08' W 005°07'3 2.7
2017-Feb-13 06:33N 36°08' W 005°10'3 3.1
2017-Feb-13 05:33N 36°11' W 005°09'2 2.0
2017-Feb-13 04:33N 36°10' W 005°10'2 2.0
2017-Feb-13 03:32N 36°09' W 005°08'1 1.5
2017-Feb-13 02:33N 36°09' W 005°10'2 1.9
2017-Feb-13 01:33N 36°08' W 005°12'1 0.7
2017-Feb-13 00:33N 36°08' W 005°13'1 0.8
2017-Feb-12 23:33N 36°07' W 005°12'1 0.9
2017-Feb-12 22:33N 36°07' W 005°11'1 0.9
2017-Feb-12 21:33N 36°07' W 005°10'1 0.9
2017-Feb-12 20:33N 36°06' W 005°09'2 1.9
2017-Feb-12 19:33N 36°04' W 005°09'5 4.9
2017-Feb-12 18:33N 36°01' W 005°13'1010.0
2017-Feb-12 17:33N 35°58' W 005°25'1413.7
2017-Feb-12 16:33N 35°55' W 005°42'1514.8
2017-Feb-12 15:33N 35°54' W 006°00'23312.2
2017-Feb-11 20:28N 38°10' W 009°58'1213.2
2017-Feb-11 19:33N 38°21' W 010°01'1313.4
2017-Feb-11 18:33N 38°34' W 010°05'1414.0
2017-Feb-11 17:33N 38°48' W 010°07'1414.3
2017-Feb-11 16:33N 39°03' W 010°06'1714.1
2017-Feb-11 15:22N 39°19' W 010°04'  
2017-Feb-09 06:33N 50°41' W 005°57'1414.1
2017-Feb-09 05:33N 50°54' W 005°47'1413.6
2017-Feb-09 04:30N 51°07' W 005°37'  

Dump ship's entire track history